Time;durP1;ratioP1;P1;durP2;ratioP2;P2;SDS_P1;SDS_P2;PMS_P1;PMS_P2;Temp;Humidity;BMP_temperature;BMP_pressure;BME280_temperature;BME280_humidity;BME280_pressure;Samples;Min_cycle;Max_cycle;Signal;HPM_P1;HPM_P2
2022/03/28 00:02:13;;;;;;;12.13;9.87;;;;;;;;;;5095196;28;20455;-77
2022/03/28 00:04:40;;;;;;;11.07;9.63;;;;;;;;;;5087989;28;20521;-77
2022/03/28 00:07:09;;;;;;;10.60;9.50;;;;;;;;;;5085050;28;20444;-77
2022/03/28 00:09:36;;;;;;;11.70;9.93;;;;;;;;;;5090087;28;20988;-78
2022/03/28 00:12:03;;;;;;;10.93;9.47;;;;;;;;;;5090477;28;20446;-77
2022/03/28 00:14:30;;;;;;;12.67;9.33;;;;;;;;;;5088541;28;20464;-76
2022/03/28 00:16:57;;;;;;;15.70;10.70;;;;;;;;;;5088443;28;20483;-75
2022/03/28 00:19:24;;;;;;;13.17;10.30;;;;;;;;;;5089364;28;20452;-77
2022/03/28 00:21:51;;;;;;;11.70;10.20;;;;;;;;;;5089713;28;20448;-77
2022/03/28 00:24:19;;;;;;;17.50;11.23;;;;;;;;;;5088972;28;20463;-77
2022/03/28 00:26:46;;;;;;;12.47;10.70;;;;;;;;;;5089723;28;21304;-76
2022/03/28 00:29:13;;;;;;;12.27;9.83;;;;;;;;;;5087088;28;20444;-77
2022/03/28 00:31:41;;;;;;;14.43;10.53;;;;;;;;;;5083275;28;20471;-76
2022/03/28 00:34:08;;;;;;;14.80;10.57;;;;;;;;;;5077677;28;21149;-76
2022/03/28 00:36:35;;;;;;;16.63;10.63;;;;;;;;;;5078477;28;20503;-77
2022/03/28 00:39:02;;;;;;;16.00;10.10;;;;;;;;;;5084042;28;20448;-77
2022/03/28 00:41:30;;;;;;;13.73;10.00;;;;;;;;;;5089576;28;20488;-76
2022/03/28 00:43:58;;;;;;;13.13;9.93;;;;;;;;;;5080827;28;20475;-76
2022/03/28 00:46:26;;;;;;;16.60;10.97;;;;;;;;;;5086494;28;20443;-77
2022/03/28 00:48:54;;;;;;;10.93;9.70;;;;;;;;;;5089357;28;20458;-76
2022/03/28 00:51:21;;;;;;;14.03;9.97;;;;;;;;;;5078717;28;20864;-77
2022/03/28 00:53:50;;;;;;;10.87;9.77;;;;;;;;;;5085463;28;20475;-76
2022/03/28 00:56:17;;;;;;;12.97;9.47;;;;;;;;;;5092674;28;20566;-76
2022/03/28 00:58:45;;;;;;;15.27;10.80;;;;;;;;;;5092595;28;20469;-76
2022/03/28 01:01:12;;;;;;;12.43;9.83;;;;;;;;;;5092221;28;20505;-77
2022/03/28 01:03:39;;;;;;;11.17;9.30;;;;;;;;;;5084777;28;20474;-76
2022/03/28 01:06:07;;;;;;;15.80;10.50;;;;;;;;;;5084412;28;20490;-78
2022/03/28 01:08:34;;;;;;;11.90;10.27;;;;;;;;;;5092789;28;20447;-77
2022/03/28 01:11:03;;;;;;;15.00;10.23;;;;;;;;;;5093048;28;20498;-77
2022/03/28 01:13:30;;;;;;;10.70;9.70;;;;;;;;;;5092381;28;20472;-76
2022/03/28 01:15:59;;;;;;;14.13;10.80;;;;;;;;;;5092763;28;20484;-77
2022/03/28 01:18:25;;;;;;;13.30;10.97;;;;;;;;;;5092245;28;20459;-77
2022/03/28 01:20:56;;;;;;;13.77;10.00;;;;;;;;;;5089835;28;20513;-76
2022/03/28 01:23:23;;;;;;;19.90;9.87;;;;;;;;;;5092174;28;20938;-77
2022/03/28 01:25:52;;;;;;;16.50;10.97;;;;;;;;;;5092500;28;21004;-76
2022/03/28 01:28:19;;;;;;;13.53;10.70;;;;;;;;;;5092515;28;20522;-76
2022/03/28 01:30:46;;;;;;;12.00;10.30;;;;;;;;;;5092790;28;20455;-76
2022/03/28 01:33:13;;;;;;;15.37;11.03;;;;;;;;;;5091534;28;20529;-77
2022/03/28 01:35:43;;;;;;;13.27;10.77;;;;;;;;;;5092239;28;20812;-77
2022/03/28 01:38:12;;;;;;;20.33;11.00;;;;;;;;;;5092534;28;20504;-76
2022/03/28 01:40:41;;;;;;;13.90;11.07;;;;;;;;;;5092223;28;20451;-76
2022/03/28 01:43:08;;;;;;;13.97;10.47;;;;;;;;;;5092005;28;20493;-77
2022/03/28 01:45:35;;;;;;;14.70;10.40;;;;;;;;;;5092396;28;20448;-77
2022/03/28 01:48:02;;;;;;;15.33;11.50;;;;;;;;;;5091643;28;20864;-77
2022/03/28 01:50:29;;;;;;;15.07;10.57;;;;;;;;;;5092135;28;20489;-77
2022/03/28 01:52:56;;;;;;;12.73;9.77;;;;;;;;;;5091545;28;20482;-77
2022/03/28 01:55:25;;;;;;;14.33;10.50;;;;;;;;;;5092106;28;20528;-76
2022/03/28 01:57:52;;;;;;;15.50;10.83;;;;;;;;;;5091869;28;20485;-78
2022/03/28 02:00:20;;;;;;;15.73;10.23;;;;;;;;;;5091907;28;20468;-75
2022/03/28 02:02:48;;;;;;;15.13;10.57;;;;;;;;;;5091620;28;20865;-76
2022/03/28 02:05:15;;;;;;;14.37;10.93;;;;;;;;;;5091202;28;20489;-76
2022/03/28 02:07:44;;;;;;;15.00;10.43;;;;;;;;;;5088006;28;20501;-76
2022/03/28 02:10:12;;;;;;;13.90;10.20;;;;;;;;;;5079601;28;20497;-77
2022/03/28 02:12:40;;;;;;;17.40;10.43;;;;;;;;;;5082734;28;20535;-77
2022/03/28 02:15:08;;;;;;;17.13;10.70;;;;;;;;;;5092214;28;20513;-77
2022/03/28 02:17:36;;;;;;;14.83;10.60;;;;;;;;;;5091513;28;20486;-76
2022/03/28 02:20:05;;;;;;;13.13;10.10;;;;;;;;;;5091875;28;20444;-76
2022/03/28 02:22:32;;;;;;;13.63;10.47;;;;;;;;;;5091933;28;20856;-77
2022/03/28 02:24:59;;;;;;;15.97;10.93;;;;;;;;;;5091998;28;20489;-77
2022/03/28 02:27:27;;;;;;;12.43;10.73;;;;;;;;;;5092044;28;20447;-76
2022/03/28 02:29:55;;;;;;;14.13;11.00;;;;;;;;;;5095116;28;20458;-75
2022/03/28 02:32:22;;;;;;;16.47;11.07;;;;;;;;;;5097029;28;20440;-75
2022/03/28 02:34:49;;;;;;;15.67;11.20;;;;;;;;;;5091258;28;20826;-77
2022/03/28 02:37:16;;;;;;;12.60;10.70;;;;;;;;;;5091656;28;20471;-77
2022/03/28 02:39:43;;;;;;;14.40;11.07;;;;;;;;;;5104104;28;20470;-75
2022/03/28 02:42:10;;;;;;;16.30;11.83;;;;;;;;;;5109861;28;20513;-75
2022/03/28 02:44:37;;;;;;;17.10;12.07;;;;;;;;;;5109155;28;20485;-75
2022/03/28 02:47:06;;;;;;;16.13;11.30;;;;;;;;;;5108796;28;20541;-76
2022/03/28 02:49:33;;;;;;;18.50;12.20;;;;;;;;;;5112313;28;20486;-77
2022/03/28 02:52:00;;;;;;;14.70;11.60;;;;;;;;;;5109836;28;20507;-75
2022/03/28 02:54:27;;;;;;;16.30;11.50;;;;;;;;;;5108510;28;20824;-76
2022/03/28 02:56:54;;;;;;;15.03;11.77;;;;;;;;;;5104521;28;20532;-76
2022/03/28 02:59:21;;;;;;;15.30;11.87;;;;;;;;;;5091943;28;20451;-75
2022/03/28 03:01:50;;;;;;;15.63;11.70;;;;;;;;;;5092210;28;20443;-76
2022/03/28 03:04:18;;;;;;;14.53;13.00;;;;;;;;;;5091620;28;20521;-75
2022/03/28 03:06:45;;;;;;;18.10;12.60;;;;;;;;;;5072906;28;20441;-76
2022/03/28 03:09:12;;;;;;;16.53;11.83;;;;;;;;;;5070907;28;20449;-75
2022/03/28 03:11:40;;;;;;;17.53;12.10;;;;;;;;;;5070775;28;20441;-76
2022/03/28 03:14:07;;;;;;;15.70;12.60;;;;;;;;;;5071171;28;20515;-76
2022/03/28 03:16:34;;;;;;;17.80;12.20;;;;;;;;;;5070686;28;20987;-76
2022/03/28 03:19:01;;;;;;;21.53;12.40;;;;;;;;;;5071063;28;20444;-76
2022/03/28 03:21:29;;;;;;;16.90;14.20;;;;;;;;;;5070466;28;20455;-76
2022/03/28 03:23:56;;;;;;;21.23;14.43;;;;;;;;;;5069830;28;20472;-76
2022/03/28 03:26:23;;;;;;;19.27;12.37;;;;;;;;;;5070256;28;20444;-75
2022/03/28 03:28:50;;;;;;;16.63;13.43;;;;;;;;;;5070074;28;20445;-77
2022/03/28 03:31:17;;;;;;;17.13;12.63;;;;;;;;;;5070500;28;20502;-76
2022/03/28 03:33:44;;;;;;;18.63;13.20;;;;;;;;;;5069832;28;20543;-76
2022/03/28 03:36:11;;;;;;;19.50;13.30;;;;;;;;;;5069942;28;20470;-76
2022/03/28 03:38:40;;;;;;;17.00;13.20;;;;;;;;;;5070067;28;20449;-76
2022/03/28 03:41:07;;;;;;;16.00;13.43;;;;;;;;;;5069895;28;20993;-76
2022/03/28 03:43:34;;;;;;;19.20;13.17;;;;;;;;;;5069207;28;20484;-77
2022/03/28 03:46:01;;;;;;;16.13;13.47;;;;;;;;;;5070069;28;20441;-75
2022/03/28 03:48:29;;;;;;;18.43;13.30;;;;;;;;;;5069792;28;21025;-76
2022/03/28 03:50:57;;;;;;;18.00;13.20;;;;;;;;;;5069962;28;20479;-76
2022/03/28 03:53:24;;;;;;;16.50;12.77;;;;;;;;;;5069448;28;20468;-76
2022/03/28 03:55:52;;;;;;;17.03;13.50;;;;;;;;;;5069547;28;20444;-75
2022/03/28 03:58:19;;;;;;;19.57;13.50;;;;;;;;;;5069357;28;20472;-75
2022/03/28 04:00:46;;;;;;;20.00;13.70;;;;;;;;;;5068816;28;20437;-76
2022/03/28 04:03:13;;;;;;;16.10;13.23;;;;;;;;;;5069355;28;20461;-76
2022/03/28 04:05:40;;;;;;;15.63;12.10;;;;;;;;;;5078874;28;20455;-76
2022/03/28 04:08:07;;;;;;;15.13;12.97;;;;;;;;;;5089744;28;20436;-76
2022/03/28 04:10:35;;;;;;;16.53;12.60;;;;;;;;;;5089674;28;20500;-76
2022/03/28 04:13:04;;;;;;;20.50;13.00;;;;;;;;;;5089576;28;20464;-76
2022/03/28 04:15:31;;;;;;;20.23;13.30;;;;;;;;;;5089766;28;20470;-76
2022/03/28 04:17:58;;;;;;;17.37;13.10;;;;;;;;;;5089568;28;20828;-76
2022/03/28 04:20:25;;;;;;;15.70;12.97;;;;;;;;;;5089816;28;20439;-77
2022/03/28 04:22:52;;;;;;;18.33;13.00;;;;;;;;;;5089306;28;20455;-77
2022/03/28 04:25:19;;;;;;;16.63;12.93;;;;;;;;;;5091719;28;20978;-76
2022/03/28 04:27:47;;;;;;;17.27;13.20;;;;;;;;;;5093843;28;20451;-77
2022/03/28 04:30:15;;;;;;;17.23;11.73;;;;;;;;;;5093531;28;20950;-76
2022/03/28 04:32:42;;;;;;;18.47;12.70;;;;;;;;;;5093178;28;20450;-76
2022/03/28 04:35:10;;;;;;;13.67;11.97;;;;;;;;;;5093253;28;20443;-76
2022/03/28 04:37:38;;;;;;;18.30;13.20;;;;;;;;;;5093716;28;20485;-76
2022/03/28 04:40:07;;;;;;;19.70;12.30;;;;;;;;;;5093571;28;20448;-76
2022/03/28 04:42:34;;;;;;;15.97;12.40;;;;;;;;;;5093218;28;20475;-76
2022/03/28 04:45:02;;;;;;;18.17;13.33;;;;;;;;;;5093266;28;20534;-76
2022/03/28 04:47:30;;;;;;;23.67;12.83;;;;;;;;;;5093179;28;20835;-76
2022/03/28 04:49:58;;;;;;;17.53;12.73;;;;;;;;;;5093137;28;21265;-76
2022/03/28 04:52:25;;;;;;;20.00;12.40;;;;;;;;;;5092870;28;20609;-76
2022/03/28 04:54:52;;;;;;;21.60;13.20;;;;;;;;;;5093049;28;20467;-77
2022/03/28 04:57:20;;;;;;;17.80;13.23;;;;;;;;;;5093205;28;20505;-76
2022/03/28 04:59:47;;;;;;;18.20;12.80;;;;;;;;;;5092872;28;20447;-77
2022/03/28 05:02:14;;;;;;;19.50;12.60;;;;;;;;;;5092937;28;20448;-76
2022/03/28 05:04:43;;;;;;;16.33;12.00;;;;;;;;;;5092393;28;20478;-77
2022/03/28 05:07:10;;;;;;;21.20;15.23;;;;;;;;;;5092697;28;20855;-77
2022/03/28 05:09:37;;;;;;;27.87;17.63;;;;;;;;;;5092885;28;20444;-76
2022/03/28 05:12:04;;;;;;;25.50;17.90;;;;;;;;;;5092671;28;20439;-76
2022/03/28 05:14:31;;;;;;;17.10;13.80;;;;;;;;;;5092461;28;20471;-77
2022/03/28 05:16:58;;;;;;;16.50;13.60;;;;;;;;;;5092408;28;20483;-77
2022/03/28 05:19:25;;;;;;;18.23;12.13;;;;;;;;;;5092804;28;20501;-77
2022/03/28 05:21:54;;;;;;;18.73;13.60;;;;;;;;;;5093156;28;20524;-76
2022/03/28 05:24:21;;;;;;;20.40;13.57;;;;;;;;;;5092311;28;20467;-77
2022/03/28 05:26:48;;;;;;;23.00;14.80;;;;;;;;;;5092849;28;20758;-77
2022/03/28 05:29:18;;;;;;;16.60;13.43;;;;;;;;;;5099431;28;20860;-77
2022/03/28 05:31:45;;;;;;;18.03;13.00;;;;;;;;;;5102256;28;20443;-76
2022/03/28 05:34:12;;;;;;;19.70;14.20;;;;;;;;;;5101673;28;20538;-76
2022/03/28 05:36:40;;;;;;;18.30;12.30;;;;;;;;;;5101493;28;20444;-75
2022/03/28 05:39:08;;;;;;;16.87;13.30;;;;;;;;;;5095348;28;20573;-76
2022/03/28 05:41:36;;;;;;;17.33;13.70;;;;;;;;;;5092179;28;20474;-77
2022/03/28 05:44:03;;;;;;;23.27;13.77;;;;;;;;;;5092068;28;20447;-77
2022/03/28 05:46:30;;;;;;;22.33;13.77;;;;;;;;;;5092071;28;20439;-76
2022/03/28 05:48:57;;;;;;;17.20;13.30;;;;;;;;;;5092070;28;20918;-77
2022/03/28 05:51:24;;;;;;;20.10;13.77;;;;;;;;;;5092324;28;20435;-76
2022/03/28 05:53:52;;;;;;;19.90;13.00;;;;;;;;;;5091994;28;20470;-76
2022/03/28 05:56:20;;;;;;;17.20;13.23;;;;;;;;;;5097397;28;20435;-76
2022/03/28 05:58:47;;;;;;;15.80;12.80;;;;;;;;;;5114241;28;20491;-77
2022/03/28 06:01:14;;;;;;;22.10;13.80;;;;;;;;;;5113592;28;20440;-76
2022/03/28 06:03:41;;;;;;;19.13;12.60;;;;;;;;;;5113512;28;20459;-77
2022/03/28 06:06:08;;;;;;;19.13;13.17;;;;;;;;;;5080552;28;20554;-76
2022/03/28 06:08:36;;;;;;;27.23;14.63;;;;;;;;;;5071889;28;20801;-77
2022/03/28 06:11:04;;;;;;;19.97;13.03;;;;;;;;;;5071452;28;20455;-77
2022/03/28 06:13:32;;;;;;;15.97;13.30;;;;;;;;;;5071228;28;20549;-76
2022/03/28 06:15:59;;;;;;;21.50;12.77;;;;;;;;;;5071491;28;20522;-78
2022/03/28 06:18:26;;;;;;;17.70;12.20;;;;;;;;;;5071459;28;20479;-77
2022/03/28 06:20:54;;;;;;;18.60;12.70;;;;;;;;;;5071117;28;20467;-76
2022/03/28 06:23:21;;;;;;;22.13;13.00;;;;;;;;;;5072064;28;20472;-77
2022/03/28 06:25:48;;;;;;;21.83;13.60;;;;;;;;;;5071832;28;20532;-77
2022/03/28 06:28:16;;;;;;;23.70;12.90;;;;;;;;;;5071376;28;20472;-77
2022/03/28 06:30:44;;;;;;;16.50;13.03;;;;;;;;;;5070969;28;21015;-78
2022/03/28 06:33:11;;;;;;;18.87;13.30;;;;;;;;;;5070572;28;20464;-76
2022/03/28 06:35:53;;;;;;;23.63;13.00;;;;;;;;;;5072838;28;20852;-76
2022/03/28 06:38:20;;;;;;;17.43;13.03;;;;;;;;;;5070799;28;20929;-77
2022/03/28 06:40:47;;;;;;;24.53;12.90;;;;;;;;;;5070970;28;20444;-77
2022/03/28 06:43:14;;;;;;;17.73;13.60;;;;;;;;;;5070452;28;20472;-77
2022/03/28 06:45:42;;;;;;;19.33;12.50;;;;;;;;;;5071177;28;20444;-77
2022/03/28 06:48:11;;;;;;;18.63;12.47;;;;;;;;;;5070263;28;20449;-76
2022/03/28 06:50:38;;;;;;;22.53;13.93;;;;;;;;;;5070707;28;20882;-77
2022/03/28 06:53:05;;;;;;;18.77;13.60;;;;;;;;;;5070361;28;20464;-77
2022/03/28 06:55:32;;;;;;;19.87;13.80;;;;;;;;;;5070655;28;20849;-76
2022/03/28 06:57:59;;;;;;;18.43;12.27;;;;;;;;;;5070943;28;20472;-78
2022/03/28 07:00:26;;;;;;;15.60;12.50;;;;;;;;;;5070888;28;20453;-77
2022/03/28 07:02:53;;;;;;;20.37;13.70;;;;;;;;;;5070365;28;20861;-76
2022/03/28 07:05:22;;;;;;;22.30;14.00;;;;;;;;;;5077108;28;20447;-76
2022/03/28 07:07:50;;;;;;;17.27;13.20;;;;;;;;;;5090385;28;20493;-76
2022/03/28 07:10:17;;;;;;;18.00;12.90;;;;;;;;;;5090746;28;20528;-78
2022/03/28 07:12:44;;;;;;;18.80;13.17;;;;;;;;;;5090245;28;20876;-77
2022/03/28 07:15:12;;;;;;;20.60;13.50;;;;;;;;;;5090867;28;20500;-77
2022/03/28 07:17:46;;;;;;;21.53;14.03;;;;;;;;;;5090243;28;20525;-76
2022/03/28 07:20:13;;;;;;;17.53;13.80;;;;;;;;;;5090214;28;20501;-76
2022/03/28 07:22:41;;;;;;;20.07;14.47;;;;;;;;;;5090379;28;20530;-76
2022/03/28 07:25:09;;;;;;;19.50;14.07;;;;;;;;;;5090185;28;20440;-75
2022/03/28 07:27:37;;;;;;;21.07;14.00;;;;;;;;;;5090323;28;20450;-76
2022/03/28 07:30:05;;;;;;;24.73;14.90;;;;;;;;;;5090161;28;20475;-77
2022/03/28 07:32:32;;;;;;;18.60;14.03;;;;;;;;;;5089751;28;20508;-77
2022/03/28 07:34:59;;;;;;;18.37;13.90;;;;;;;;;;5089766;28;20517;-77
2022/03/28 07:37:26;;;;;;;30.47;14.77;;;;;;;;;;5090243;28;20447;-76
2022/03/28 07:39:54;;;;;;;16.80;13.80;;;;;;;;;;5090292;28;20451;-77
2022/03/28 07:42:21;;;;;;;23.63;14.20;;;;;;;;;;5090331;28;20822;-76
2022/03/28 07:44:48;;;;;;;20.20;14.63;;;;;;;;;;5090208;28;20467;-77
2022/03/28 07:47:16;;;;;;;20.80;15.50;;;;;;;;;;5089933;28;20440;-76
2022/03/28 07:49:43;;;;;;;23.20;13.90;;;;;;;;;;5090442;28;20440;-76
2022/03/28 07:52:10;;;;;;;18.60;13.73;;;;;;;;;;5090704;28;20454;-76
2022/03/28 07:54:37;;;;;;;21.67;14.27;;;;;;;;;;5090041;28;20472;-76
2022/03/28 07:57:06;;;;;;;16.47;14.47;;;;;;;;;;5091100;28;20448;-77
2022/03/28 07:59:33;;;;;;;24.90;15.30;;;;;;;;;;5092351;28;20482;-76
2022/03/28 08:02:01;;;;;;;21.03;14.33;;;;;;;;;;5094130;28;20443;-77
2022/03/28 08:04:28;;;;;;;18.13;15.23;;;;;;;;;;5094443;28;20467;-77
2022/03/28 08:06:55;;;;;;;22.17;14.33;;;;;;;;;;5074925;28;20441;-78
2022/03/28 08:09:22;;;;;;;22.33;15.17;;;;;;;;;;5074154;28;20502;-76
2022/03/28 08:11:49;;;;;;;27.27;15.50;;;;;;;;;;5073587;28;20817;-77
2022/03/28 08:14:17;;;;;;;21.50;14.73;;;;;;;;;;5073331;28;20514;-77
2022/03/28 08:16:44;;;;;;;22.00;15.60;;;;;;;;;;5074056;28;20862;-76
2022/03/28 08:19:11;;;;;;;22.50;15.67;;;;;;;;;;5074597;28;20485;-78
2022/03/28 08:21:38;;;;;;;28.27;15.80;;;;;;;;;;5074188;28;20444;-77
2022/03/28 08:24:06;;;;;;;24.70;15.67;;;;;;;;;;5073705;28;20468;-76
2022/03/28 08:26:33;;;;;;;19.90;16.77;;;;;;;;;;5074241;28;20445;-77
2022/03/28 08:29:00;;;;;;;21.00;14.70;;;;;;;;;;5073916;28;20936;-77
2022/03/28 08:31:29;;;;;;;27.73;16.33;;;;;;;;;;5074804;28;20448;-77
2022/03/28 08:33:56;;;;;;;17.70;14.97;;;;;;;;;;5073399;28;21015;-78
2022/03/28 08:36:23;;;;;;;24.10;16.10;;;;;;;;;;5074880;28;20452;-76
2022/03/28 08:38:50;;;;;;;20.30;15.70;;;;;;;;;;5075459;28;20477;-77
2022/03/28 08:41:18;;;;;;;22.50;15.67;;;;;;;;;;5074106;28;20440;-76
2022/03/28 08:43:46;;;;;;;21.47;15.20;;;;;;;;;;5073595;28;20480;-76
2022/03/28 08:46:15;;;;;;;20.00;15.27;;;;;;;;;;5073591;28;20843;-78
2022/03/28 08:48:44;;;;;;;17.73;14.80;;;;;;;;;;5073574;28;20819;-77
2022/03/28 08:51:11;;;;;;;21.07;14.83;;;;;;;;;;5073070;28;20447;-76
2022/03/28 08:53:39;;;;;;;20.17;16.30;;;;;;;;;;5073504;28;20498;-77
2022/03/28 08:56:07;;;;;;;22.20;15.80;;;;;;;;;;5073696;28;20444;-76
2022/03/28 08:58:35;;;;;;;25.30;15.90;;;;;;;;;;5073366;28;20590;-77
2022/03/28 09:01:02;;;;;;;25.60;16.07;;;;;;;;;;5073311;28;20441;-77
2022/03/28 09:03:36;;;;;;;22.93;16.20;;;;;;;;;;5073174;28;20981;-78
2022/03/28 09:06:25;;;;;;;21.30;16.07;;;;;;;;;;5085565;28;20794;-78
2022/03/28 09:08:52;;;;;;;22.10;16.37;;;;;;;;;;5092937;28;20444;-76
2022/03/28 09:11:23;;;;;;;19.77;16.77;;;;;;;;;;5092569;28;20439;-77
2022/03/28 09:13:50;;;;;;;26.07;17.73;;;;;;;;;;5093416;28;20476;-77
2022/03/28 09:16:19;;;;;;;22.43;15.97;;;;;;;;;;5093843;28;20447;-76
2022/03/28 09:18:46;;;;;;;18.87;15.97;;;;;;;;;;5111198;28;20471;-77
2022/03/28 09:21:16;;;;;;;23.23;15.73;;;;;;;;;;5112909;28;20493;-76
2022/03/28 09:23:44;;;;;;;22.30;16.90;;;;;;;;;;5109796;28;20489;-76
2022/03/28 09:26:13;;;;;;;23.80;16.63;;;;;;;;;;5105388;28;20440;-75
2022/03/28 09:28:46;;;;;;;22.97;17.20;;;;;;;;;;5093587;28;20435;-76
2022/03/28 09:31:24;;;;;;;22.20;16.43;;;;;;;;;;5093445;28;20444;-76
2022/03/28 09:34:09;;;;;;;22.57;16.17;;;;;;;;;;5092922;28;20471;-76
2022/03/28 09:36:39;;;;;;;22.97;16.63;;;;;;;;;;5093128;28;20436;-76
2022/03/28 09:39:07;;;;;;;23.93;18.43;;;;;;;;;;5092867;28;20479;-77
2022/03/28 09:41:35;;;;;;;24.20;17.53;;;;;;;;;;5093182;28;20446;-76
2022/03/28 09:44:02;;;;;;;24.00;17.60;;;;;;;;;;5092403;28;21029;-77
2022/03/28 09:46:31;;;;;;;22.07;17.57;;;;;;;;;;5094537;28;20448;-78
2022/03/28 09:48:59;;;;;;;29.23;18.73;;;;;;;;;;5095329;28;20497;-75
2022/03/28 09:51:27;;;;;;;23.57;18.20;;;;;;;;;;5101833;28;20444;-77
2022/03/28 09:53:56;;;;;;;19.73;15.90;;;;;;;;;;5098930;28;20466;-76
2022/03/28 09:56:23;;;;;;;20.67;18.17;;;;;;;;;;5094079;28;20452;-78
2022/03/28 09:58:56;;;;;;;22.87;18.17;;;;;;;;;;5092674;28;20480;-77
2022/03/28 10:01:25;;;;;;;23.37;18.30;;;;;;;;;;5092643;28;20523;-76
2022/03/28 10:03:52;;;;;;;22.03;17.60;;;;;;;;;;5092146;28;20474;-78
2022/03/28 10:06:20;;;;;;;25.83;18.50;;;;;;;;;;5078087;28;20445;-77
2022/03/28 10:08:47;;;;;;;21.23;18.00;;;;;;;;;;5072166;28;20448;-76
2022/03/28 10:11:17;;;;;;;22.17;19.27;;;;;;;;;;5072508;28;20456;-78
2022/03/28 10:13:44;;;;;;;22.30;18.73;;;;;;;;;;5071889;28;20456;-76
2022/03/28 10:16:16;;;;;;;32.23;18.53;;;;;;;;;;5073596;28;20468;-77
2022/03/28 10:18:45;;;;;;;25.47;18.63;;;;;;;;;;5071905;28;20484;-77
2022/03/28 10:21:16;;;;;;;31.07;18.60;;;;;;;;;;5071819;28;20532;-77
2022/03/28 10:23:46;;;;;;;26.17;19.03;;;;;;;;;;5070918;28;20527;-76
2022/03/28 10:26:14;;;;;;;24.13;18.37;;;;;;;;;;5072327;28;20549;-76
2022/03/28 10:28:42;;;;;;;30.50;20.10;;;;;;;;;;5073040;28;20854;-79
2022/03/28 10:31:17;;;;;;;24.83;17.63;;;;;;;;;;5072178;28;20441;-77
2022/03/28 10:33:52;;;;;;;27.23;18.93;;;;;;;;;;5072716;28;20471;-77
2022/03/28 10:36:28;;;;;;;24.17;18.90;;;;;;;;;;5073384;28;20497;-78
2022/03/28 10:38:57;;;;;;;22.30;19.90;;;;;;;;;;5073251;28;20504;-78
2022/03/28 10:41:26;;;;;;;22.97;18.70;;;;;;;;;;5073308;28;20510;-78
2022/03/28 10:44:03;;;;;;;24.47;19.27;;;;;;;;;;5072807;28;20564;-76
2022/03/28 10:46:35;;;;;;;26.00;18.57;;;;;;;;;;5073319;28;20444;-77
2022/03/28 10:49:02;;;;;;;25.10;18.77;;;;;;;;;;5071808;28;20441;-77
2022/03/28 10:51:31;;;;;;;24.80;18.10;;;;;;;;;;5072847;28;20462;-77
2022/03/28 10:53:59;;;;;;;23.67;18.40;;;;;;;;;;5071785;28;20555;-78
2022/03/28 10:56:27;;;;;;;25.13;18.77;;;;;;;;;;5071663;28;20445;-76
2022/03/28 10:58:56;;;;;;;20.80;18.10;;;;;;;;;;5071721;28;20889;-76
2022/03/28 11:01:31;;;;;;;21.63;18.13;;;;;;;;;;5071996;28;20938;-76
2022/03/28 11:04:00;;;;;;;23.27;17.80;;;;;;;;;;5070658;28;20967;-75
2022/03/28 11:06:42;;;;;;;21.30;18.67;;;;;;;;;;5088152;28;20468;-76
2022/03/28 11:09:09;;;;;;;21.83;15.80;;;;;;;;;;5089967;28;20447;-76
2022/03/28 11:11:37;;;;;;;23.83;17.77;;;;;;;;;;5092697;28;20454;-76
2022/03/28 11:14:06;;;;;;;21.53;17.70;;;;;;;;;;5093127;28;20920;-76
2022/03/28 11:16:41;;;;;;;19.20;15.93;;;;;;;;;;5093655;28;20888;-76
2022/03/28 11:19:25;;;;;;;23.60;17.50;;;;;;;;;;5091594;28;20476;-76
2022/03/28 11:22:08;;;;;;;22.97;19.00;;;;;;;;;;5095734;28;20447;-76
2022/03/28 11:24:48;;;;;;;21.07;16.87;;;;;;;;;;5095136;28;20499;-76
2022/03/28 11:27:16;;;;;;;21.40;16.77;;;;;;;;;;5093811;28;20443;-76
2022/03/28 11:29:45;;;;;;;20.87;17.07;;;;;;;;;;5094788;28;20443;-77
2022/03/28 11:32:13;;;;;;;18.63;16.30;;;;;;;;;;5095069;28;20447;-77
2022/03/28 11:34:40;;;;;;;21.17;16.57;;;;;;;;;;5092328;28;20472;-77
2022/03/28 11:37:09;;;;;;;23.87;17.30;;;;;;;;;;5090386;28;20447;-77
2022/03/28 11:39:53;;;;;;;21.27;16.23;;;;;;;;;;5083384;28;20499;-76
2022/03/28 11:42:21;;;;;;;20.60;17.60;;;;;;;;;;5087828;28;20584;-76
2022/03/28 11:44:55;;;;;;;19.07;17.00;;;;;;;;;;5083001;28;20465;-76
2022/03/28 11:47:22;;;;;;;20.37;17.40;;;;;;;;;;5088224;28;20535;-77
2022/03/28 11:49:53;;;;;;;22.03;17.77;;;;;;;;;;5089494;28;20447;-76
2022/03/28 11:52:21;;;;;;;18.77;16.77;;;;;;;;;;5085949;28;20467;-77
2022/03/28 11:54:48;;;;;;;27.57;18.87;;;;;;;;;;5091147;28;20460;-78
2022/03/28 12:00:19;;;;;;;19.93;17.37;;;;;;;;;;5054711;28;20482;-76
2022/03/28 12:02:53;;;;;;;25.23;17.43;;;;;;;;;;5090010;28;20923;-77
2022/03/28 12:05:30;;;;;;;23.20;17.40;;;;;;;;;;5089228;28;20493;-77
2022/03/28 12:07:57;;;;;;;20.90;17.73;;;;;;;;;;5087676;28;20934;-77
2022/03/28 12:10:25;;;;;;;19.73;17.60;;;;;;;;;;5091325;28;20447;-78
2022/03/28 12:12:52;;;;;;;18.93;16.87;;;;;;;;;;5096423;28;20444;-78
2022/03/28 12:15:31;;;;;;;21.60;17.47;;;;;;;;;;5097278;28;20435;-78
2022/03/28 12:17:59;;;;;;;20.60;17.60;;;;;;;;;;5103708;28;20459;-77
2022/03/28 12:20:27;;;;;;;22.43;18.43;;;;;;;;;;5111561;28;20574;-76
2022/03/28 12:22:54;;;;;;;26.47;18.70;;;;;;;;;;5111577;28;20435;-78
2022/03/28 12:25:25;;;;;;;21.73;18.90;;;;;;;;;;5111523;28;20450;-79
2022/03/28 12:27:53;;;;;;;20.40;16.90;;;;;;;;;;5110699;28;20446;-77
2022/03/28 12:30:20;;;;;;;19.97;17.30;;;;;;;;;;5110931;28;20521;-76
2022/03/28 12:32:49;;;;;;;19.80;17.63;;;;;;;;;;5114084;28;20442;-77
2022/03/28 12:35:19;;;;;;;22.80;17.30;;;;;;;;;;5134648;28;20578;-76
2022/03/28 12:37:46;;;;;;;21.60;17.87;;;;;;;;;;5134426;28;20435;-77
2022/03/28 12:40:13;;;;;;;20.67;16.87;;;;;;;;;;5130668;28;20478;-77
2022/03/28 12:42:44;;;;;;;21.07;16.10;;;;;;;;;;5113720;28;20446;-78
2022/03/28 12:45:13;;;;;;;22.40;16.27;;;;;;;;;;5112024;28;20443;-78
2022/03/28 12:47:40;;;;;;;21.37;15.87;;;;;;;;;;5115915;28;20442;-78
2022/03/28 12:50:10;;;;;;;21.90;16.77;;;;;;;;;;5116233;28;20597;-78
2022/03/28 12:52:39;;;;;;;17.23;15.43;;;;;;;;;;5116206;28;20468;-77
2022/03/28 12:55:07;;;;;;;22.63;16.53;;;;;;;;;;5091325;28;20530;-78
2022/03/28 12:57:37;;;;;;;22.20;17.17;;;;;;;;;;5095522;28;20527;-77
2022/03/28 13:00:05;;;;;;;17.80;15.93;;;;;;;;;;5095735;28;20532;-77
2022/03/28 13:02:32;;;;;;;19.07;15.93;;;;;;;;;;5095625;28;20444;-78
2022/03/28 13:05:01;;;;;;;15.83;14.23;;;;;;;;;;5095304;28;20967;-77
2022/03/28 13:07:30;;;;;;;17.27;15.00;;;;;;;;;;5095470;28;20451;-78
2022/03/28 13:09:57;;;;;;;17.33;14.03;;;;;;;;;;5094937;28;20542;-78
2022/03/28 13:12:34;;;;;;;19.30;15.80;;;;;;;;;;5094236;28;20546;-78
2022/03/28 13:15:01;;;;;;;18.37;15.00;;;;;;;;;;5095103;28;20479;-77
2022/03/28 13:17:28;;;;;;;18.17;14.90;;;;;;;;;;5094668;28;20440;-77
2022/03/28 13:19:56;;;;;;;17.37;14.80;;;;;;;;;;5094275;28;20475;-77
2022/03/28 13:22:27;;;;;;;18.57;14.07;;;;;;;;;;5094144;28;20451;-77
2022/03/28 13:25:08;;;;;;;17.00;13.80;;;;;;;;;;5093826;28;20459;-77
2022/03/28 13:30:21;;;;;;;15.03;13.43;;;;;;;;;;5096546;28;20422;-77
2022/03/28 13:32:49;;;;;;;18.30;15.90;;;;;;;;;;5095561;28;20451;-77
2022/03/28 13:35:17;;;;;;;19.07;14.67;;;;;;;;;;5095390;28;20468;-77
2022/03/28 13:37:53;;;;;;;15.17;13.67;;;;;;;;;;5095236;28;20446;-77
2022/03/28 13:40:22;;;;;;;14.53;12.57;;;;;;;;;;5094452;28;21060;-76
2022/03/28 13:42:49;;;;;;;15.37;13.80;;;;;;;;;;5093327;28;20455;-76
2022/03/28 13:45:16;;;;;;;14.77;12.83;;;;;;;;;;5093974;28;20468;-78
2022/03/28 13:47:43;;;;;;;15.70;13.30;;;;;;;;;;5092866;28;20561;-76
2022/03/28 13:50:10;;;;;;;15.20;13.00;;;;;;;;;;5093624;28;20502;-76
2022/03/28 13:52:37;;;;;;;20.30;14.30;;;;;;;;;;5093249;28;20440;-76
2022/03/28 13:55:05;;;;;;;16.37;13.97;;;;;;;;;;5093732;28;20439;-76
2022/03/28 13:57:33;;;;;;;19.53;14.00;;;;;;;;;;5093079;28;20447;-76
2022/03/28 14:00:00;;;;;;;16.80;14.17;;;;;;;;;;5093239;28;20498;-76
2022/03/28 14:02:28;;;;;;;14.70;12.90;;;;;;;;;;5093102;28;20474;-76
2022/03/28 14:04:55;;;;;;;15.63;13.23;;;;;;;;;;5093255;28;20459;-76
2022/03/28 14:07:22;;;;;;;14.13;12.73;;;;;;;;;;5093342;28;20473;-77
2022/03/28 14:09:49;;;;;;;16.70;12.97;;;;;;;;;;5093492;28;20439;-77
2022/03/28 14:12:16;;;;;;;14.33;12.53;;;;;;;;;;5089271;28;20445;-77
2022/03/28 14:14:45;;;;;;;14.47;13.07;;;;;;;;;;5092557;28;20474;-77
2022/03/28 14:17:12;;;;;;;14.37;12.87;;;;;;;;;;5093645;28;20603;-78
2022/03/28 14:19:41;;;;;;;19.00;13.23;;;;;;;;;;5093804;28;20497;-77
2022/03/28 14:22:08;;;;;;;14.73;12.23;;;;;;;;;;5097208;28;20505;-77
2022/03/28 14:24:36;;;;;;;15.33;12.63;;;;;;;;;;5095116;28;20463;-77
2022/03/28 14:27:03;;;;;;;16.93;12.40;;;;;;;;;;5072654;28;20448;-76
2022/03/28 14:29:30;;;;;;;14.67;12.77;;;;;;;;;;5072241;28;20453;-77
2022/03/28 14:31:58;;;;;;;14.13;12.60;;;;;;;;;;5072521;28;20532;-78